Pagrindinis puslapis
METAR-TAF:

METAR-TAF

Oro uostai :

Nadžranas, Saudo Arabija

platuma: 17-37N, ilguma: 044-25E, Aukštis: 1212 m

Dabartinis oras

Ataskaita buvo paskelbta 55 minutes, ne 19:00 UTC
Ramus vėjas
Temperatūra 17°C
Drėgmė 39%
Slėgis 1021 hPa
Matomumas 10 km arba daugiau
nėra debesų žemiau 1500 m ir nėra kamuolinių lietaus debesų

METAR: OENG 251900Z 00000KT CAVOK 17/03 Q1021 NOSIG

Laikas: 22:55 (19:55 UTC)

Prognozė

Ataskaita buvo paskelbta 8 valandos ir 55 minutes, ne 11:00 UTC
Prognozė galioja nuo 25 metu 12 UTC su 26 metu 18 UTC
Vėjas 10 kt iš Rytų/Pietryčių
Matomumas: 7000 m
Tapsmas
nuo 25 metu 18 UTC su 25 metu 20 UTC
Vėjas 3 kt nuo kintamojo kryptimis
Matomumas 10 km arba daugiau
nėra debesų žemiau 1500 m ir nėra kamuolinių lietaus debesų
Tapsmas
nuo 26 metu 06 UTC su 26 metu 08 UTC
Vėjas 10 kt iš Pietryčių

TAF: OENG 251100Z 2512/2618 12010KT 7000 NSC BECMG 2518/2520 VRB03KT CAVOK BECMG 2606/2608 14010KT

Orai ataskaitas ir orų prognozės (METAR, TAF).

turimą stotys yra geltonos ir raudonos taškus žemėlapyje.

Perkelti pele per norėdami pamatyti stoties vardą.

Tada spustelėkite, norėdami matyti oro stebėjimo ir prognozės.

Norėdami pakeisti žemėlapį: spustelėkite ant žalios mygtukų su juodo kryžiaus žemyn,; žalią mygtuką su brūkšneliu, jei norite nutolinti; arba žalių rodyklių gretimoms žemėlapius.


METAR-TAF: